Time;durP1;ratioP1;P1;durP2;ratioP2;P2;SDS_P1;SDS_P2;PMS_P1;PMS_P2;Temp;Humidity;BMP_temperature;BMP_pressure;BME280_temperature;BME280_humidity;BME280_pressure;Samples;Min_cycle;Max_cycle;Signal;HPM_P1;HPM_P2
2022/01/06 00:00:46;;;;;;;6.83;3.10;;;5.10;99.90;;;;;;5012025;28;20229;-56
2022/01/06 00:03:12;;;;;;;4.73;2.93;;;4.90;99.90;;;;;;5014075;28;20192;-56
2022/01/06 00:05:38;;;;;;;5.77;2.73;;;5.00;99.90;;;;;;5012897;28;20569;-56
2022/01/06 00:08:03;;;;;;;8.67;3.40;;;5.10;99.90;;;;;;5004984;28;20208;-55
2022/01/06 00:10:30;;;;;;;3.57;2.90;;;4.90;99.90;;;;;;5014107;28;20458;-56
2022/01/06 00:23:27;;;;;;;5.57;3.45;;;5.10;99.90;;;;;;5014583;28;20204;-56
2022/01/06 00:25:53;;;;;;;2.92;2.55;;;4.80;99.90;;;;;;5010656;28;20990;-56
2022/01/06 00:28:19;;;;;;;8.77;3.07;;;5.30;99.90;;;;;;5014066;28;20291;-56
2022/01/06 00:30:45;;;;;;;5.80;3.30;;;5.20;99.90;;;;;;5017799;28;20615;-56
2022/01/06 00:33:11;;;;;;;3.25;2.55;;;4.80;99.90;;;;;;5013830;28;20431;-55
2022/01/06 00:35:37;;;;;;;4.80;3.90;;;5.10;99.90;;;;;;5014704;28;20192;-56
2022/01/06 00:38:06;;;;;;;3.47;2.63;;;4.80;99.90;;;;;;5017654;28;20282;-56
2022/01/06 00:40:32;;;;;;;5.32;3.28;;;4.90;99.90;;;;;;5005151;28;20225;-56
2022/01/06 00:42:58;;;;;;;4.70;2.90;;;4.90;99.90;;;;;;5009493;28;20669;-56
2022/01/06 00:45:23;;;;;;;8.10;3.30;;;4.90;99.90;;;;;;5009714;28;20208;-56
2022/01/06 00:47:49;;;;;;;5.10;3.03;;;4.70;99.90;;;;;;5014003;28;20253;-56
2022/01/06 00:50:16;;;;;;;3.70;2.45;;;4.50;99.90;;;;;;5011654;28;20227;-55
2022/01/06 00:52:41;;;;;;;4.60;3.03;;;4.80;99.90;;;;;;5013646;28;20255;-56
2022/01/06 00:55:08;;;;;;;3.53;3.00;;;4.90;99.90;;;;;;5011701;28;20184;-56
2022/01/06 00:57:33;;;;;;;4.45;2.67;;;5.00;99.90;;;;;;5013299;28;20214;-56
2022/01/06 00:59:59;;;;;;;3.47;2.97;;;4.80;99.90;;;;;;5010854;28;20215;-55
2022/01/06 01:02:24;;;;;;;5.43;3.60;;;4.90;99.90;;;;;;5013407;28;20231;-56
2022/01/06 01:04:50;;;;;;;4.13;3.00;;;4.40;99.90;;;;;;5017492;28;20525;-56
2022/01/06 01:07:16;;;;;;;7.33;3.13;;;4.30;99.90;;;;;;5012942;28;20249;-56
2022/01/06 01:09:41;;;;;;;6.93;3.47;;;4.90;99.90;;;;;;5009128;28;21975;-56
2022/01/06 01:12:07;;;;;;;4.63;2.80;;;4.90;99.90;;;;;;5013298;28;20186;-56
2022/01/06 01:14:44;;;;;;;6.07;3.63;;;4.90;99.90;;;;;;5011735;28;20440;-55
2022/01/06 01:17:14;;;;;;;6.20;2.90;;;5.10;99.90;;;;;;5012790;28;20195;-56
2022/01/06 01:19:40;;;;;;;6.10;2.97;;;4.90;99.90;;;;;;5011111;28;20215;-56
2022/01/06 01:22:08;;;;;;;4.23;3.33;;;4.50;99.90;;;;;;5010938;28;20593;-56
2022/01/06 01:24:34;;;;;;;5.90;3.47;;;5.10;99.90;;;;;;5012762;28;20470;-56
2022/01/06 01:26:59;;;;;;;6.03;3.30;;;5.00;99.90;;;;;;5012811;28;20232;-57
2022/01/06 01:29:27;;;;;;;4.27;2.60;;;5.10;99.90;;;;;;5011991;28;20522;-55
2022/01/06 01:31:55;;;;;;;4.60;2.90;;;4.80;99.90;;;;;;5012728;28;20187;-56
2022/01/06 01:34:24;;;;;;;4.75;3.40;;;4.90;99.90;;;;;;5012487;28;20188;-56
2022/01/06 01:36:51;;;;;;;4.65;2.80;;;5.20;99.90;;;;;;5010781;28;20289;-57
2022/01/06 01:39:18;;;;;;;7.28;2.72;;;4.80;99.90;;;;;;5003934;28;20204;-55
2022/01/06 01:41:43;;;;;;;4.53;2.72;;;5.10;99.90;;;;;;5012485;28;20262;-56
2022/01/06 01:44:15;;;;;;;3.37;2.73;;;5.10;99.90;;;;;;5009339;28;20267;-56
2022/01/06 01:46:52;;;;;;;5.28;3.55;;;5.10;99.90;;;;;;4999161;28;20211;-56
2022/01/06 01:51:49;;;;;;;4.25;2.88;;;5.20;99.90;;;;;;5012325;28;20283;-55
2022/01/06 01:54:15;;;;;;;6.60;2.90;;;5.10;99.90;;;;;;5007674;28;20194;-55
2022/01/06 01:56:40;;;;;;;3.10;2.80;;;4.50;99.90;;;;;;5011444;28;20187;-57
2022/01/06 01:59:06;;;;;;;3.13;2.83;;;4.90;99.90;;;;;;5008525;28;20208;-57
2022/01/06 02:01:32;;;;;;;4.97;2.90;;;4.90;99.90;;;;;;5011083;28;20657;-56
2022/01/06 02:03:57;;;;;;;4.70;3.07;;;5.00;99.90;;;;;;5011653;28;20331;-56
2022/01/06 02:06:24;;;;;;;4.67;3.27;;;5.20;99.90;;;;;;5010757;28;20493;-56
2022/01/06 02:08:51;;;;;;;4.47;2.88;;;5.20;99.90;;;;;;5010331;28;20211;-57
2022/01/06 02:11:17;;;;;;;6.10;2.80;;;5.40;99.90;;;;;;5012953;28;20190;-56
2022/01/06 02:13:47;;;;;;;4.20;3.22;;;4.90;99.90;;;;;;5016104;28;20221;-56
2022/01/06 02:16:13;;;;;;;7.63;3.30;;;4.90;99.90;;;;;;5006126;28;20189;-56
2022/01/06 02:18:39;;;;;;;7.30;3.13;;;4.70;99.90;;;;;;5011613;28;20265;-55
2022/01/06 02:21:04;;;;;;;7.97;3.93;;;5.10;99.90;;;;;;5011542;28;20751;-56
2022/01/06 02:23:30;;;;;;;5.80;3.53;;;4.80;99.90;;;;;;5008538;28;20188;-56
2022/01/06 02:25:56;;;;;;;4.93;3.40;;;4.50;99.90;;;;;;5010996;28;20658;-57
2022/01/06 02:28:25;;;;;;;7.83;3.00;;;4.50;99.90;;;;;;5012719;28;20218;-57
2022/01/06 02:30:51;;;;;;;4.65;3.28;;;4.90;99.90;;;;;;5007389;28;20266;-56
2022/01/06 02:33:21;;;;;;;5.15;3.30;;;4.70;99.90;;;;;;5011087;28;20233;-56
2022/01/06 02:35:48;;;;;;;3.63;2.90;;;4.80;99.90;;;;;;5011780;28;20573;-57
2022/01/06 02:38:14;;;;;;;6.47;3.42;;;4.60;99.90;;;;;;5004444;28;20271;-55
2022/01/06 02:40:40;;;;;;;4.45;2.78;;;4.80;99.90;;;;;;5011127;28;20263;-56
2022/01/06 02:43:07;;;;;;;5.10;3.00;;;5.00;99.90;;;;;;5011220;28;20194;-55
2022/01/06 02:45:34;;;;;;;3.00;2.50;;;5.10;99.90;;;;;;5010038;28;20181;-57
2022/01/06 02:48:01;;;;;;;3.40;2.90;;;4.90;99.90;;;;;;5013957;28;20218;-56
2022/01/06 02:50:27;;;;;;;4.00;3.60;;;4.60;99.90;;;;;;5011270;28;20213;-56
2022/01/06 02:52:53;;;;;;;3.35;2.63;;;4.70;99.90;;;;;;5011142;28;20215;-56
2022/01/06 02:55:19;;;;;;;5.32;2.53;;;4.80;99.90;;;;;;5008061;28;20195;-56
2022/01/06 02:57:45;;;;;;;5.00;3.03;;;4.80;99.90;;;;;;5010788;28;20180;-56
2022/01/06 03:00:16;;;;;;;5.37;3.17;;;5.00;99.90;;;;;;5008793;28;20207;-55
2022/01/06 03:02:43;;;;;;;3.60;2.35;;;5.00;99.90;;;;;;5010978;28;20440;-56
2022/01/06 03:05:12;;;;;;;5.20;3.40;;;5.10;99.90;;;;;;5002545;28;20214;-55
2022/01/06 03:07:39;;;;;;;3.78;2.50;;;5.20;99.90;;;;;;5004837;28;20212;-56
2022/01/06 03:10:08;;;;;;;5.90;2.80;;;5.20;99.90;;;;;;5010714;28;20201;-55
2022/01/06 03:12:39;;;;;;;4.20;2.55;;;5.00;99.90;;;;;;5010551;28;20219;-56
2022/01/06 03:15:06;;;;;;;6.18;3.17;;;4.90;99.90;;;;;;5002812;28;20191;-55
2022/01/06 03:17:32;;;;;;;3.28;2.97;;;5.10;99.90;;;;;;5010327;28;20192;-57
2022/01/06 03:19:57;;;;;;;4.37;2.90;;;5.30;99.90;;;;;;5011082;28;20224;-56
2022/01/06 03:22:23;;;;;;;4.00;3.00;;;5.20;99.90;;;;;;5010880;28;20753;-56
2022/01/06 03:24:49;;;;;;;4.83;3.00;;;5.40;99.90;;;;;;4998545;28;20560;-55
2022/01/06 03:27:14;;;;;;;4.83;2.90;;;5.30;99.90;;;;;;4997262;28;20241;-55
2022/01/06 03:29:40;;;;;;;5.13;2.93;;;4.80;99.90;;;;;;5006818;28;20232;-56
2022/01/06 03:32:06;;;;;;;5.43;3.10;;;5.20;99.90;;;;;;5010057;28;20187;-56
2022/01/06 03:34:31;;;;;;;3.73;2.53;;;4.90;99.90;;;;;;5010271;28;20649;-56
2022/01/06 03:37:00;;;;;;;3.90;2.80;;;5.20;99.90;;;;;;5009594;28;20432;-55
2022/01/06 03:39:25;;;;;;;2.70;2.50;;;5.10;99.90;;;;;;5003919;28;20673;-57
2022/01/06 03:41:51;;;;;;;4.07;3.07;;;5.10;99.90;;;;;;5010265;28;20248;-55
2022/01/06 03:44:18;;;;;;;2.80;2.57;;;5.10;99.90;;;;;;5007018;28;20198;-55
2022/01/06 03:46:44;;;;;;;7.72;5.40;;;4.60;99.90;;;;;;5009837;28;20195;-57
2022/01/06 03:49:09;;;;;;;8.90;2.77;;;5.40;99.90;;;;;;5009845;28;20212;-56
2022/01/06 03:51:35;;;;;;;4.03;2.60;;;4.70;99.90;;;;;;5010083;28;20668;-57
2022/01/06 03:54:01;;;;;;;4.40;2.90;;;5.10;99.90;;;;;;5007953;28;20187;-56
2022/01/06 03:56:26;;;;;;;5.43;3.10;;;5.10;99.90;;;;;;5010194;28;20185;-56
2022/01/06 03:58:52;;;;;;;4.90;2.90;;;5.00;99.90;;;;;;5010080;28;20206;-55
2022/01/06 04:01:18;;;;;;;3.50;2.67;;;4.90;99.90;;;;;;5005205;28;20974;-56
2022/01/06 04:03:47;;;;;;;3.92;2.92;;;5.10;99.90;;;;;;5003889;28;20185;-56
2022/01/06 04:06:14;;;;;;;5.43;2.70;;;5.10;99.90;;;;;;5000151;28;20196;-55
2022/01/06 04:08:40;;;;;;;3.42;2.88;;;5.10;99.90;;;;;;5004250;28;20475;-56
2022/01/06 04:11:06;;;;;;;4.63;2.50;;;4.80;99.90;;;;;;5010557;28;20258;-56
2022/01/06 04:13:33;;;;;;;4.30;2.40;;;4.80;99.90;;;;;;5010418;28;20431;-56
2022/01/06 04:16:01;;;;;;;4.13;3.05;;;4.90;99.90;;;;;;5006411;28;20548;-56
2022/01/06 04:18:27;;;;;;;6.30;3.08;;;4.70;99.90;;;;;;5006853;28;20263;-55
2022/01/06 04:20:53;;;;;;;2.60;2.40;;;5.00;99.90;;;;;;5009213;28;20665;-56
2022/01/06 04:23:18;;;;;;;2.80;2.60;;;4.90;99.90;;;;;;5009633;28;20896;-57
2022/01/06 04:25:44;;;;;;;5.13;2.50;;;4.80;99.90;;;;;;5012562;28;20195;-57
2022/01/06 04:28:09;;;;;;;3.50;2.70;;;4.90;99.90;;;;;;5009399;28;20266;-55
2022/01/06 04:30:35;;;;;;;5.20;2.40;;;5.20;99.90;;;;;;5006834;28;20577;-57
2022/01/06 04:33:01;;;;;;;6.83;2.70;;;5.00;99.90;;;;;;5013808;28;20193;-57
2022/01/06 04:35:27;;;;;;;4.23;2.60;;;5.10;99.90;;;;;;5009473;28;20275;-57
2022/01/06 04:37:52;;;;;;;5.77;2.50;;;4.90;99.90;;;;;;5010936;28;20469;-56
2022/01/06 04:40:18;;;;;;;2.60;2.40;;;5.20;99.90;;;;;;5011419;28;20580;-56
2022/01/06 04:42:43;;;;;;;2.90;2.37;;;5.20;99.90;;;;;;5013959;28;20193;-56
2022/01/06 04:45:09;;;;;;;4.23;2.53;;;5.20;99.90;;;;;;5011818;28;20254;-56
2022/01/06 04:47:35;;;;;;;3.37;2.50;;;5.20;99.90;;;;;;5013220;28;20262;-56
2022/01/06 04:50:01;;;;;;;4.50;2.53;;;5.20;99.90;;;;;;5013396;28;20204;-57
2022/01/06 04:52:26;;;;;;;2.90;2.37;;;5.40;99.90;;;;;;5011272;28;20218;-55
2022/01/06 04:54:52;;;;;;;3.40;2.60;;;5.20;99.90;;;;;;5000366;28;20839;-55
2022/01/06 04:57:18;;;;;;;3.27;2.97;;;5.30;99.90;;;;;;5013155;28;20196;-57
2022/01/06 04:59:43;;;;;;;5.87;2.80;;;5.20;99.90;;;;;;4997538;28;20298;-56
2022/01/06 05:02:09;;;;;;;2.90;2.43;;;5.10;99.90;;;;;;5010349;28;20188;-55
2022/01/06 05:04:35;;;;;;;4.10;2.77;;;5.10;99.90;;;;;;5008722;28;20194;-56
2022/01/06 05:07:00;;;;;;;3.67;2.77;;;4.40;99.90;;;;;;5012149;28;20214;-55
2022/01/06 05:09:26;;;;;;;4.50;3.00;;;5.10;99.90;;;;;;5011917;28;20604;-56
2022/01/06 05:11:52;;;;;;;3.85;2.95;;;5.20;99.90;;;;;;5013033;28;20195;-55
2022/01/06 05:14:18;;;;;;;6.93;3.60;;;5.50;99.90;;;;;;5009456;28;20192;-56
2022/01/06 05:16:43;;;;;;;4.03;3.07;;;4.80;99.90;;;;;;5010025;28;20192;-56
2022/01/06 05:19:09;;;;;;;3.10;2.73;;;4.80;99.90;;;;;;5012674;28;20206;-56
2022/01/06 05:21:35;;;;;;;5.73;2.67;;;5.00;99.90;;;;;;5011488;28;20187;-56
2022/01/06 05:24:01;;;;;;;5.30;3.40;;;5.20;99.90;;;;;;5007882;28;20264;-57
2022/01/06 05:26:27;;;;;;;4.07;2.85;;;4.80;99.90;;;;;;5009913;28;20425;-57
2022/01/06 05:28:52;;;;;;;6.23;2.83;;;4.80;99.90;;;;;;5011616;28;20239;-55
2022/01/06 05:31:18;;;;;;;4.70;3.20;;;5.10;99.90;;;;;;5009126;28;20589;-57
2022/01/06 05:33:44;;;;;;;6.23;3.13;;;5.10;99.90;;;;;;5012545;28;20182;-56
2022/01/06 05:36:09;;;;;;;3.67;2.97;;;5.00;99.90;;;;;;5014901;28;20177;-55
2022/01/06 05:38:35;;;;;;;5.50;2.90;;;5.00;99.90;;;;;;5011472;28;20199;-56
2022/01/06 05:41:00;;;;;;;2.93;2.63;;;5.10;99.90;;;;;;5011244;28;20198;-56
2022/01/06 05:43:27;;;;;;;3.60;2.67;;;4.70;99.90;;;;;;5011973;28;20576;-56
2022/01/06 05:45:55;;;;;;;3.90;2.90;;;5.10;99.90;;;;;;5005887;28;20181;-56
2022/01/06 05:48:22;;;;;;;6.30;3.65;;;5.10;99.90;;;;;;5012118;28;20211;-56
2022/01/06 05:50:48;;;;;;;4.38;2.65;;;4.90;99.90;;;;;;5011920;28;20195;-56
2022/01/06 05:53:16;;;;;;;5.47;2.97;;;4.80;99.90;;;;;;5008245;28;20767;-56
2022/01/06 05:55:42;;;;;;;4.18;2.83;;;4.70;99.90;;;;;;4997781;28;20190;-56
2022/01/06 05:58:07;;;;;;;4.20;3.07;;;4.80;99.90;;;;;;5012133;28;20187;-55
2022/01/06 06:00:33;;;;;;;3.33;2.73;;;4.90;99.90;;;;;;5003110;28;20466;-56
2022/01/06 06:02:59;;;;;;;5.20;3.07;;;5.10;99.90;;;;;;5014133;28;20276;-57
2022/01/06 06:05:25;;;;;;;3.50;2.87;;;4.90;99.90;;;;;;5011648;28;20498;-56
2022/01/06 06:07:51;;;;;;;5.47;2.90;;;5.50;99.90;;;;;;5011252;28;20209;-57
2022/01/06 06:10:16;;;;;;;4.67;2.80;;;4.70;99.90;;;;;;5011477;28;20215;-57
2022/01/06 06:12:42;;;;;;;5.17;3.50;;;5.00;99.90;;;;;;5012645;28;20180;-56
2022/01/06 06:15:08;;;;;;;5.25;2.83;;;5.10;99.90;;;;;;5000767;28;20256;-56
2022/01/06 06:17:34;;;;;;;3.07;2.77;;;4.90;99.90;;;;;;5011316;28;20225;-56
2022/01/06 06:20:00;;;;;;;4.30;2.87;;;4.30;99.90;;;;;;5011510;28;20210;-56
2022/01/06 06:22:25;;;;;;;3.40;2.60;;;4.30;99.90;;;;;;5010095;28;20296;-56
2022/01/06 06:24:51;;;;;;;2.70;2.50;;;5.10;99.90;;;;;;5009165;28;20216;-56
2022/01/06 06:27:17;;;;;;;3.10;2.80;;;5.20;99.90;;;;;;5013875;28;20271;-55
2022/01/06 06:29:42;;;;;;;3.30;3.00;;;4.90;99.90;;;;;;5005018;28;20232;-56
2022/01/06 06:32:08;;;;;;;4.10;2.73;;;4.80;99.90;;;;;;5011196;28;20665;-56
2022/01/06 06:34:34;;;;;;;2.80;2.60;;;5.00;99.90;;;;;;5010435;28;20438;-56
2022/01/06 06:36:59;;;;;;;9.40;4.07;;;4.80;99.90;;;;;;5006493;28;20196;-56
2022/01/06 06:39:25;;;;;;;3.90;2.53;;;5.00;99.90;;;;;;5004473;28;20216;-54
2022/01/06 06:41:51;;;;;;;3.67;2.73;;;5.00;99.90;;;;;;5011450;28;20203;-56
2022/01/06 06:44:16;;;;;;;4.80;2.87;;;5.00;99.90;;;;;;5013755;28;20197;-57
2022/01/06 06:46:42;;;;;;;3.67;2.80;;;4.90;99.90;;;;;;5011295;28;20184;-56
2022/01/06 06:49:08;;;;;;;4.33;2.80;;;4.80;99.90;;;;;;5009189;28;20651;-56
2022/01/06 06:51:35;;;;;;;4.27;2.90;;;4.80;99.90;;;;;;5009991;28;20574;-55
2022/01/06 06:54:01;;;;;;;3.80;2.70;;;5.50;99.90;;;;;;5005839;28;20276;-56
2022/01/06 06:56:27;;;;;;;2.73;2.50;;;5.10;99.90;;;;;;5011497;28;20749;-56
2022/01/06 06:58:52;;;;;;;3.10;2.80;;;5.00;99.90;;;;;;5010899;28;20704;-56
2022/01/06 07:01:18;;;;;;;3.43;2.57;;;5.10;99.90;;;;;;4996083;28;20221;-56
2022/01/06 07:03:43;;;;;;;4.13;2.93;;;4.90;99.90;;;;;;5009958;28;20626;-56
2022/01/06 07:06:09;;;;;;;3.43;3.13;;;5.10;99.90;;;;;;5003769;28;20219;-56
2022/01/06 07:08:35;;;;;;;4.97;3.50;;;5.10;99.90;;;;;;5009161;28;20209;-57
2022/01/06 07:11:00;;;;;;;5.83;4.00;;;4.50;99.90;;;;;;4999899;28;20515;-56
2022/01/06 07:13:26;;;;;;;4.73;3.00;;;5.00;99.90;;;;;;5010504;28;20216;-56
2022/01/06 07:15:52;;;;;;;4.30;3.00;;;5.00;99.90;;;;;;5001477;28;20668;-56
2022/01/06 07:18:17;;;;;;;5.97;2.93;;;5.00;99.90;;;;;;5015196;28;20180;-57
2022/01/06 07:20:43;;;;;;;3.67;2.83;;;4.30;99.90;;;;;;5009844;28;20188;-56
2022/01/06 07:23:09;;;;;;;4.35;2.75;;;5.10;99.90;;;;;;5009719;28;20184;-56
2022/01/06 07:25:35;;;;;;;6.93;3.07;;;5.00;99.90;;;;;;5011217;28;20231;-56
2022/01/06 07:28:00;;;;;;;5.40;2.90;;;4.80;99.90;;;;;;5010171;28;20463;-56
2022/01/06 07:30:26;;;;;;;9.73;2.80;;;5.10;99.90;;;;;;5012047;28;20242;-56
2022/01/06 07:32:52;;;;;;;3.13;2.83;;;4.80;99.90;;;;;;5009243;28;20321;-56
2022/01/06 07:35:21;;;;;;;4.43;3.00;;;5.20;99.90;;;;;;5011159;28;20212;-56
2022/01/06 07:37:48;;;;;;;4.32;2.78;;;5.00;99.90;;;;;;5007116;28;20188;-56
2022/01/06 07:40:14;;;;;;;4.55;3.05;;;5.20;99.90;;;;;;5010165;28;20211;-56
2022/01/06 07:42:40;;;;;;;3.78;2.83;;;4.50;99.90;;;;;;5010383;28;20212;-56
2022/01/06 07:45:07;;;;;;;2.67;2.43;;;5.30;99.90;;;;;;5008015;28;20189;-57
2022/01/06 07:47:35;;;;;;;4.60;2.88;;;5.30;99.90;;;;;;5007267;28;20455;-55
2022/01/06 07:50:02;;;;;;;3.78;3.10;;;5.30;99.90;;;;;;5001606;28;20204;-56
2022/01/06 07:52:27;;;;;;;3.05;2.30;;;5.30;99.90;;;;;;5008214;28;20200;-56
2022/01/06 07:54:53;;;;;;;5.63;3.07;;;5.40;99.90;;;;;;5013578;28;20205;-56
2022/01/06 07:57:19;;;;;;;7.70;5.47;;;5.20;99.90;;;;;;5010071;28;20176;-56
2022/01/06 07:59:45;;;;;;;4.50;3.23;;;5.30;99.90;;;;;;5001775;28;20525;-55
2022/01/06 08:02:10;;;;;;;2.97;2.60;;;5.30;99.90;;;;;;5013600;28;20934;-56
2022/01/06 08:04:36;;;;;;;4.83;2.73;;;5.20;99.90;;;;;;5013821;28;20274;-56
2022/01/06 08:07:03;;;;;;;5.53;3.05;;;5.10;99.90;;;;;;5013475;28;20291;-57
2022/01/06 08:09:28;;;;;;;3.78;2.50;;;5.10;99.90;;;;;;5015763;28;20195;-56
2022/01/06 08:11:54;;;;;;;5.30;3.00;;;4.70;99.90;;;;;;5004111;28;20194;-55
2022/01/06 08:14:20;;;;;;;5.07;2.67;;;5.10;99.90;;;;;;5009030;28;20436;-56
2022/01/06 08:16:46;;;;;;;4.80;2.93;;;4.90;99.90;;;;;;5008585;28;20197;-56
2022/01/06 08:19:12;;;;;;;3.90;3.38;;;5.10;99.90;;;;;;5013097;28;20436;-57
2022/01/06 08:21:38;;;;;;;7.00;3.10;;;4.90;99.90;;;;;;5009720;28;20550;-55
2022/01/06 08:24:04;;;;;;;3.60;2.80;;;4.90;99.90;;;;;;5007254;28;20453;-56
2022/01/06 08:26:30;;;;;;;3.10;2.80;;;4.80;99.90;;;;;;5012556;28;20474;-55
2022/01/06 08:28:56;;;;;;;7.03;3.00;;;4.80;99.90;;;;;;5018039;28;20226;-56
2022/01/06 08:31:22;;;;;;;6.50;3.53;;;5.20;99.90;;;;;;5008555;28;20180;-56
2022/01/06 08:33:48;;;;;;;8.70;3.70;;;4.60;99.90;;;;;;5012502;28;20191;-56
2022/01/06 08:36:14;;;;;;;4.37;3.60;;;4.80;99.90;;;;;;5001800;28;20190;-56
2022/01/06 08:38:40;;;;;;;6.13;3.50;;;4.20;99.90;;;;;;5008175;28;20294;-56
2022/01/06 08:41:05;;;;;;;3.70;2.70;;;4.80;99.90;;;;;;5007780;28;20319;-55
2022/01/06 08:43:31;;;;;;;5.20;3.07;;;5.00;99.90;;;;;;5009192;28;20199;-55
2022/01/06 08:45:58;;;;;;;3.50;3.03;;;5.00;99.90;;;;;;5005686;28;20216;-56
2022/01/06 08:48:24;;;;;;;4.60;3.45;;;5.20;99.90;;;;;;5010448;28;20211;-55
2022/01/06 08:50:50;;;;;;;4.43;3.28;;;5.00;99.90;;;;;;5012651;28;20294;-57
2022/01/06 08:53:16;;;;;;;4.18;3.72;;;4.90;99.90;;;;;;5000626;28;20183;-57
2022/01/06 08:55:46;;;;;;;5.90;3.53;;;4.90;99.90;;;;;;5009145;28;20180;-56
2022/01/06 08:58:12;;;;;;;5.47;3.65;;;4.30;99.90;;;;;;5008455;28;20188;-56
2022/01/06 09:00:39;;;;;;;6.13;3.80;;;5.10;99.90;;;;;;5010289;28;20209;-56
2022/01/06 09:03:06;;;;;;;8.80;3.53;;;5.00;99.90;;;;;;5011459;28;20442;-56
2022/01/06 09:05:32;;;;;;;7.78;3.38;;;4.90;99.90;;;;;;5002398;28;20667;-56
2022/01/06 09:07:58;;;;;;;6.10;3.63;;;4.70;99.90;;;;;;5006335;28;20303;-56
2022/01/06 09:10:27;;;;;;;8.57;3.60;;;4.60;99.90;;;;;;5010429;28;20282;-56
2022/01/06 09:12:52;;;;;;;5.18;3.35;;;5.00;99.90;;;;;;5008474;28;20268;-56
2022/01/06 09:15:18;;;;;;;4.77;3.53;;;4.80;99.90;;;;;;5006929;28;20267;-55
2022/01/06 09:17:44;;;;;;;6.80;3.83;;;4.30;99.90;;;;;;5011451;28;20727;-56
2022/01/06 09:20:10;;;;;;;4.80;3.27;;;4.60;99.90;;;;;;5005548;28;20210;-56
2022/01/06 09:22:35;;;;;;;10.35;3.80;;;5.10;99.90;;;;;;5011639;28;20304;-55
2022/01/06 09:25:01;;;;;;;6.67;3.67;;;5.20;99.90;;;;;;5011081;28;20287;-56
2022/01/06 09:27:29;;;;;;;4.70;3.17;;;5.40;99.90;;;;;;5011433;28;20223;-56
2022/01/06 09:29:55;;;;;;;4.90;3.13;;;5.50;99.90;;;;;;5004456;28;20473;-56
2022/01/06 09:32:21;;;;;;;3.90;2.77;;;5.60;99.90;;;;;;5003292;28;20207;-55
2022/01/06 09:34:47;;;;;;;5.17;2.83;;;5.80;99.90;;;;;;5013071;28;20308;-55
2022/01/06 09:37:13;;;;;;;4.03;2.93;;;6.20;99.90;;;;;;5008155;28;20193;-56
2022/01/06 09:39:40;;;;;;;3.28;2.75;;;6.70;99.90;;;;;;4999846;28;20844;-58
2022/01/06 09:42:06;;;;;;;6.57;3.10;;;7.20;99.90;;;;;;5006582;28;20303;-57
2022/01/06 09:44:31;;;;;;;4.80;2.90;;;7.20;99.90;;;;;;5005219;28;20376;-57
2022/01/06 09:46:57;;;;;;;5.13;3.10;;;7.50;99.90;;;;;;5009620;28;20431;-57
2022/01/06 09:49:23;;;;;;;3.77;3.40;;;7.90;99.90;;;;;;5008621;28;21041;-57
2022/01/06 09:51:51;;;;;;;5.40;2.90;;;8.10;99.90;;;;;;5008738;28;20195;-57
2022/01/06 09:54:18;;;;;;;3.20;2.88;;;7.90;99.90;;;;;;5001241;28;20198;-54
2022/01/06 09:56:43;;;;;;;4.82;2.90;;;7.40;99.90;;;;;;5005491;28;20183;-58
2022/01/06 09:59:09;;;;;;;4.50;3.53;;;6.70;99.90;;;;;;5005931;28;20213;-57
2022/01/06 10:01:35;;;;;;;3.93;2.70;;;7.10;99.90;;;;;;4994723;28;20727;-57
2022/01/06 10:04:01;;;;;;;5.73;2.60;;;7.10;99.90;;;;;;5010060;28;20186;-56
2022/01/06 10:06:28;;;;;;;3.80;2.50;;;7.30;99.90;;;;;;4997487;28;20185;-56
2022/01/06 10:08:59;;;;;;;3.35;2.80;;;7.00;99.90;;;;;;5010949;28;20527;-55
2022/01/06 10:11:33;;;;;;;5.63;3.40;;;7.30;99.90;;;;;;5011099;28;20191;-56
2022/01/06 10:14:11;;;;;;;7.18;3.40;;;7.30;99.90;;;;;;5010763;28;20234;-55
2022/01/06 10:16:44;;;;;;;4.95;3.95;;;7.00;99.90;;;;;;5004194;28;20593;-56
2022/01/06 10:19:11;;;;;;;5.78;3.50;;;7.30;99.90;;;;;;5009227;28;20298;-55
2022/01/06 10:21:39;;;;;;;5.50;2.70;;;6.60;99.90;;;;;;5011153;28;20226;-56
2022/01/06 10:24:16;;;;;;;2.65;2.45;;;6.80;99.90;;;;;;5000545;28;20190;-55
2022/01/06 10:26:51;;;;;;;2.47;2.13;;;6.90;99.90;;;;;;5004539;28;20175;-56
2022/01/06 10:29:18;;;;;;;3.05;2.78;;;7.10;99.90;;;;;;5004963;28;20225;-55
2022/01/06 10:31:43;;;;;;;4.90;2.90;;;6.70;99.90;;;;;;5011128;28;20193;-57
2022/01/06 10:34:09;;;;;;;3.40;2.90;;;6.40;99.90;;;;;;5007621;28;20187;-56
2022/01/06 10:36:36;;;;;;;3.40;2.70;;;6.60;99.90;;;;;;5010751;28;20183;-56
2022/01/06 10:39:06;;;;;;;3.67;2.58;;;6.50;99.90;;;;;;5001049;28;20691;-56
2022/01/06 10:41:32;;;;;;;4.00;2.65;;;6.70;99.90;;;;;;5012082;28;20190;-57
2022/01/06 10:43:59;;;;;;;6.57;2.80;;;6.90;99.90;;;;;;5010363;28;20225;-56
2022/01/06 10:46:34;;;;;;;7.05;3.10;;;6.80;99.90;;;;;;4996244;28;20179;-56
2022/01/06 10:49:03;;;;;;;4.72;2.25;;;6.60;99.90;;;;;;5007974;28;20311;-56
2022/01/06 10:51:34;;;;;;;5.80;3.00;;;6.50;99.90;;;;;;5005213;28;20294;-56
2022/01/06 10:53:59;;;;;;;6.10;3.50;;;6.40;99.90;;;;;;5008791;28;20182;-56
2022/01/06 10:56:27;;;;;;;7.73;2.87;;;6.80;99.90;;;;;;5006859;28;20547;-56
2022/01/06 10:58:57;;;;;;;5.68;3.05;;;7.00;99.90;;;;;;5008207;28;20687;-57
2022/01/06 11:01:22;;;;;;;6.63;2.95;;;6.40;99.90;;;;;;5008812;28;20198;-57
2022/01/06 11:03:48;;;;;;;4.67;2.50;;;7.10;99.90;;;;;;5008874;28;20187;-56
2022/01/06 11:06:14;;;;;;;7.23;2.40;;;7.40;99.90;;;;;;5008981;28;20202;-57
2022/01/06 11:08:41;;;;;;;6.20;2.60;;;7.60;99.90;;;;;;5002351;28;20660;-57
2022/01/06 11:13:35;;;;;;;4.22;2.40;;;7.80;99.30;;;;;;5007295;28;20210;-57
2022/01/06 11:16:02;;;;;;;5.10;2.60;;;8.10;98.50;;;;;;5005857;28;20183;-57
2022/01/06 11:18:28;;;;;;;5.70;3.28;;;8.10;98.50;;;;;;5003109;28;20191;-57
2022/01/06 11:21:08;;;;;;;6.60;3.05;;;7.70;99.20;;;;;;5007550;28;20244;-57
2022/01/06 11:23:35;;;;;;;2.95;2.65;;;7.70;99.40;;;;;;5007931;28;20676;-57
2022/01/06 11:26:12;;;;;;;4.50;2.45;;;7.70;99.50;;;;;;5007709;28;20256;-56
2022/01/06 11:28:43;;;;;;;6.55;3.00;;;8.00;99.30;;;;;;5007325;28;20213;-57
2022/01/06 11:31:15;;;;;;;6.40;2.83;;;7.70;99.10;;;;;;5010912;28;20191;-57
2022/01/06 11:33:43;;;;;;;4.63;2.58;;;7.00;98.60;;;;;;5002961;28;20723;-56
2022/01/06 11:36:30;;;;;;;5.60;2.75;;;7.70;99.40;;;;;;5005602;28;20183;-56
2022/01/06 11:38:57;;;;;;;4.97;2.22;;;7.40;99.50;;;;;;5006383;28;20213;-56
2022/01/06 11:41:41;;;;;;;3.70;2.75;;;7.20;99.90;;;;;;5003884;28;20194;-57
2022/01/06 11:44:47;;;;;;;5.40;2.90;;;7.30;99.90;;;;;;5003407;28;20221;-56
2022/01/06 11:47:13;;;;;;;6.55;3.00;;;7.00;99.90;;;;;;4982070;28;20230;-56
2022/01/06 11:49:42;;;;;;;3.43;2.30;;;7.10;99.90;;;;;;5005412;28;20206;-55
2022/01/06 11:52:14;;;;;;;5.63;2.80;;;7.00;99.90;;;;;;5007364;28;20195;-57
2022/01/06 11:54:56;;;;;;;5.03;2.20;;;7.20;99.90;;;;;;5010054;28;20215;-56
2022/01/06 11:57:34;;;;;;;8.68;3.00;;;7.00;99.50;;;;;;4997570;28;20210;-56
2022/01/06 12:00:13;;;;;;;5.20;2.55;;;6.90;99.90;;;;;;4997185;28;20573;-55
2022/01/06 12:02:39;;;;;;;3.80;2.20;;;7.00;99.90;;;;;;5012853;28;20191;-55
2022/01/06 12:05:05;;;;;;;4.97;2.20;;;7.20;99.90;;;;;;5007228;28;20195;-56
2022/01/06 12:07:31;;;;;;;4.28;2.70;;;7.10;99.90;;;;;;5009313;28;20772;-54
2022/01/06 12:10:07;;;;;;;4.63;2.50;;;7.50;99.90;;;;;;4997522;28;20203;-56
2022/01/06 12:12:38;;;;;;;5.88;2.38;;;7.40;99.10;;;;;;5010005;28;20234;-56
2022/01/06 12:15:15;;;;;;;7.15;2.58;;;8.10;99.10;;;;;;5006402;28;20660;-54
2022/01/06 12:17:56;;;;;;;6.07;2.50;;;8.60;99.10;;;;;;5002816;28;20191;-56
2022/01/06 12:20:25;;;;;;;4.60;2.30;;;8.60;97.50;;;;;;5008196;28;20275;-56
2022/01/06 12:22:51;;;;;;;5.43;2.17;;;8.40;96.80;;;;;;5008290;28;20192;-56
2022/01/06 12:25:22;;;;;;;4.80;2.05;;;8.20;97.20;;;;;;5004457;28;20561;-55
2022/01/06 12:27:49;;;;;;;3.75;2.10;;;8.20;97.10;;;;;;5005405;28;20211;-57
2022/01/06 12:30:20;;;;;;;4.63;1.90;;;7.90;97.30;;;;;;5007572;28;20542;-58
2022/01/06 12:33:01;;;;;;;4.43;2.40;;;7.80;97.10;;;;;;5001971;28;20188;-57
2022/01/06 12:35:43;;;;;;;7.97;2.95;;;7.60;97.50;;;;;;5009744;28;20265;-57
2022/01/06 12:38:10;;;;;;;7.47;3.03;;;7.40;97.90;;;;;;5007049;28;20194;-55
2022/01/06 12:40:39;;;;;;;4.53;2.15;;;7.50;98.00;;;;;;5004188;28;20357;-57
2022/01/06 12:43:24;;;;;;;7.18;3.10;;;7.30;98.20;;;;;;5005286;28;20194;-54
2022/01/06 12:46:10;;;;;;;6.93;2.83;;;7.20;98.50;;;;;;5003864;28;20195;-57
2022/01/06 12:48:38;;;;;;;5.25;3.83;;;6.80;98.60;;;;;;5005297;28;20207;-57
2022/01/06 12:51:05;;;;;;;4.00;2.70;;;6.70;99.20;;;;;;5008130;28;20187;-56
2022/01/06 12:53:37;;;;;;;7.03;2.50;;;6.10;99.80;;;;;;5007098;28;20194;-55
2022/01/06 12:56:03;;;;;;;3.42;2.28;;;6.50;99.90;;;;;;5010869;28;20183;-58
2022/01/06 12:58:37;;;;;;;2.72;2.30;;;6.60;99.60;;;;;;5009364;28;20793;-59
2022/01/06 13:01:05;;;;;;;3.78;2.50;;;6.70;99.90;;;;;;5009252;28;20182;-57
2022/01/06 13:03:37;;;;;;;3.45;2.15;;;6.60;99.90;;;;;;5011335;28;20192;-59
2022/01/06 13:06:06;;;;;;;4.93;2.90;;;6.50;99.90;;;;;;5010761;28;20199;-59
2022/01/06 13:08:44;;;;;;;6.18;2.40;;;6.10;99.90;;;;;;5019427;28;20220;-57
2022/01/06 13:11:09;;;;;;;6.05;2.53;;;6.60;99.90;;;;;;5012342;28;20192;-55
2022/01/06 13:13:48;;;;;;;7.13;2.73;;;6.40;99.90;;;;;;5012864;28;20554;-55